createdAt,value
2017-11-27T00:00:06.947Z,1017.73
2017-11-27T00:00:47.464Z,1017.7
2017-11-27T00:01:27.985Z,1017.7
2017-11-27T00:02:08.500Z,1017.72
2017-11-27T00:02:49.018Z,1017.72
2017-11-27T00:03:29.528Z,1017.72
2017-11-27T00:04:10.056Z,1017.73
2017-11-27T00:04:50.571Z,1017.73
2017-11-27T00:05:31.078Z,1017.72
2017-11-27T00:06:11.622Z,1017.75
2017-11-27T00:06:52.144Z,1017.73
2017-11-27T00:07:32.665Z,1017.73
2017-11-27T00:08:13.176Z,1017.71
2017-11-27T00:08:53.707Z,1017.71
2017-11-27T00:09:34.225Z,1017.68
2017-11-27T00:10:14.746Z,1017.72
2017-11-27T00:10:55.274Z,1017.71
2017-11-27T00:11:35.806Z,1017.67
2017-11-27T00:12:16.316Z,1017.68
2017-11-27T00:12:56.837Z,1017.69
2017-11-27T00:13:37.354Z,1017.69
2017-11-27T00:14:17.886Z,1017.65
2017-11-27T00:14:58.401Z,1017.67
2017-11-27T00:15:38.919Z,1017.65
2017-11-27T00:16:19.431Z,1017.64
2017-11-27T00:16:59.946Z,1017.58
2017-11-27T00:17:40.480Z,1017.58
2017-11-27T00:18:21.010Z,1017.53
2017-11-27T00:19:01.534Z,1017.54
2017-11-27T00:19:42.050Z,1017.52
2017-11-27T00:20:22.545Z,1017.53
2017-11-27T00:21:03.061Z,1017.53
2017-11-27T00:21:43.584Z,1017.57
2017-11-27T00:22:24.105Z,1017.52
2017-11-27T00:23:04.623Z,1017.54
2017-11-27T00:23:45.148Z,1017.52
2017-11-27T00:24:25.668Z,1017.54
2017-11-27T00:25:06.197Z,1017.5
2017-11-27T00:25:46.720Z,1017.49
2017-11-27T00:26:27.253Z,1017.43
2017-11-27T00:27:07.780Z,1017.42
2017-11-27T00:27:48.300Z,1017.46
2017-11-27T00:28:28.810Z,1017.4
2017-11-27T00:29:09.339Z,1017.39
2017-11-27T00:29:49.958Z,1017.39
2017-11-27T00:30:30.479Z,1017.4
2017-11-27T00:31:11.007Z,1017.42
2017-11-27T00:31:51.536Z,1017.41
2017-11-27T00:32:32.066Z,1017.39
2017-11-27T00:33:12.570Z,1017.37
2017-11-27T00:33:53.079Z,1017.42
2017-11-27T00:34:33.563Z,1017.42
2017-11-27T00:35:14.087Z,1017.42
2017-11-27T00:35:54.630Z,1017.41
2017-11-27T00:36:35.172Z,1017.41
2017-11-27T00:37:15.688Z,1017.42
2017-11-27T00:37:56.206Z,1017.42
2017-11-27T00:38:36.728Z,1017.43
2017-11-27T00:39:17.264Z,1017.44
2017-11-27T00:39:57.787Z,1017.47
2017-11-27T00:40:38.306Z,1017.42
2017-11-27T00:41:18.821Z,1017.47
2017-11-27T00:41:59.344Z,1017.48
2017-11-27T00:42:39.862Z,1017.51
2017-11-27T00:43:20.386Z,1017.46
2017-11-27T00:44:00.923Z,1017.47
2017-11-27T00:44:41.433Z,1017.49
2017-11-27T00:45:21.955Z,1017.46
2017-11-27T00:46:02.486Z,1017.5
2017-11-27T00:46:43.025Z,1017.51
2017-11-27T00:47:23.539Z,1017.45
2017-11-27T00:48:04.064Z,1017.47
2017-11-27T00:48:44.600Z,1017.44
2017-11-27T00:49:25.145Z,1017.45
2017-11-27T00:50:05.658Z,1017.43
2017-11-27T00:50:46.181Z,1017.42
2017-11-27T00:51:26.686Z,1017.41
2017-11-27T00:52:07.226Z,1017.44
2017-11-27T00:52:47.749Z,1017.43
2017-11-27T00:53:28.269Z,1017.48
2017-11-27T00:54:08.785Z,1017.43
2017-11-27T00:54:49.318Z,1017.44
2017-11-27T00:55:29.896Z,1017.46
2017-11-27T00:56:10.424Z,1017.45
2017-11-27T00:56:51.022Z,1017.44
2017-11-27T00:57:31.544Z,1017.43
2017-11-27T00:58:12.085Z,1017.44
2017-11-27T00:58:52.609Z,1017.45
2017-11-27T00:59:33.105Z,1017.44
2017-11-27T01:00:13.628Z,1017.4
2017-11-27T01:00:54.139Z,1017.43
2017-11-27T01:01:34.652Z,1017.41
2017-11-27T01:02:15.163Z,1017.38
2017-11-27T01:02:55.678Z,1017.39
2017-11-27T01:03:36.210Z,1017.38
2017-11-27T01:04:16.735Z,1017.33
2017-11-27T01:04:57.257Z,1017.38
2017-11-27T01:05:37.781Z,1017.37
2017-11-27T01:06:18.296Z,1017.36
2017-11-27T01:06:58.827Z,1017.32
2017-11-27T01:07:39.344Z,1017.34
2017-11-27T01:08:19.888Z,1017.33
2017-11-27T01:09:00.401Z,1017.35
2017-11-27T01:09:40.948Z,1017.36
2017-11-27T01:10:21.469Z,1017.34
2017-11-27T01:11:01.988Z,1017.28
2017-11-27T01:11:42.500Z,1017.33
2017-11-27T01:12:23.032Z,1017.28
2017-11-27T01:13:03.556Z,1017.28
2017-11-27T01:13:44.080Z,1017.28
2017-11-27T01:14:24.600Z,1017.25
2017-11-27T01:15:05.144Z,1017.28
2017-11-27T01:15:45.639Z,1017.36
2017-11-27T01:16:26.164Z,1017.35
2017-11-27T01:17:06.693Z,1017.32
2017-11-27T01:17:47.228Z,1017.32
2017-11-27T01:18:27.757Z,1017.34
2017-11-27T01:19:08.276Z,1017.31
2017-11-27T01:19:48.810Z,1017.31
2017-11-27T01:20:29.352Z,1017.34
2017-11-27T01:21:09.868Z,1017.34
2017-11-27T01:21:50.376Z,1017.34
2017-11-27T01:22:30.904Z,1017.32
2017-11-27T01:23:11.424Z,1017.36
2017-11-27T01:23:51.952Z,1017.37
2017-11-27T01:24:32.475Z,1017.35
2017-11-27T01:25:12.996Z,1017.39
2017-11-27T01:25:53.526Z,1017.38
2017-11-27T01:26:34.052Z,1017.36
2017-11-27T01:27:14.570Z,1017.33
2017-11-27T01:27:55.087Z,1017.32
2017-11-27T01:28:35.622Z,1017.29
2017-11-27T01:29:16.137Z,1017.31
2017-11-27T01:29:56.655Z,1017.29
2017-11-27T01:30:37.180Z,1017.29
2017-11-27T01:31:17.691Z,1017.28
2017-11-27T01:31:58.232Z,1017.31
2017-11-27T01:32:38.759Z,1017.28
2017-11-27T01:33:19.275Z,1017.3
2017-11-27T01:33:59.800Z,1017.32
2017-11-27T01:34:40.330Z,1017.35
2017-11-27T01:35:20.857Z,1017.33
2017-11-27T01:36:01.374Z,1017.33
2017-11-27T01:36:41.895Z,1017.34
2017-11-27T01:37:22.429Z,1017.36
2017-11-27T01:38:02.961Z,1017.37
2017-11-27T01:38:43.491Z,1017.37
2017-11-27T01:39:24.010Z,1017.38
2017-11-27T01:40:04.533Z,1017.37
2017-11-27T01:40:45.056Z,1017.39
2017-11-27T01:41:25.596Z,1017.37
2017-11-27T01:42:06.109Z,1017.35
2017-11-27T01:42:46.654Z,1017.31
2017-11-27T01:43:27.204Z,1017.33
2017-11-27T01:44:07.699Z,1017.33
2017-11-27T01:44:48.220Z,1017.36
2017-11-27T01:45:28.756Z,1017.36
2017-11-27T01:46:09.293Z,1017.36
2017-11-27T01:46:49.834Z,1017.38
2017-11-27T01:47:30.367Z,1017.39
2017-11-27T01:48:10.872Z,1017.37
2017-11-27T01:48:51.394Z,1017.4
2017-11-27T01:49:31.920Z,1017.37
2017-11-27T01:50:12.432Z,1017.4
2017-11-27T01:50:52.948Z,1017.4
2017-11-27T01:51:33.468Z,1017.35
2017-11-27T01:52:13.998Z,1017.4
2017-11-27T01:52:54.509Z,1017.41
2017-11-27T01:53:35.037Z,1017.43
2017-11-27T01:54:15.569Z,1017.43
2017-11-27T01:54:56.091Z,1017.46
2017-11-27T01:55:36.598Z,1017.42
2017-11-27T01:56:17.148Z,1017.37
2017-11-27T01:56:57.668Z,1017.39
2017-11-27T01:57:38.192Z,1017.33
2017-11-27T01:58:18.710Z,1017.33
2017-11-27T01:58:59.231Z,1017.3
2017-11-27T01:59:39.749Z,1017.3
2017-11-27T02:00:20.277Z,1017.3
2017-11-27T02:01:00.803Z,1017.29
2017-11-27T02:01:41.320Z,1017.32
2017-11-27T02:02:21.841Z,1017.26
2017-11-27T02:03:02.362Z,1017.3
2017-11-27T02:03:42.872Z,1017.33
2017-11-27T02:04:23.378Z,1017.28
2017-11-27T02:05:03.889Z,1017.23
2017-11-27T02:05:44.418Z,1017.26
2017-11-27T02:06:24.933Z,1017.26
2017-11-27T02:07:05.453Z,1017.25
2017-11-27T02:07:45.991Z,1017.25
2017-11-27T02:08:26.622Z,1017.25
2017-11-27T02:09:07.166Z,1017.24
2017-11-27T02:09:47.701Z,1017.23
2017-11-27T02:10:28.203Z,1017.24
2017-11-27T02:11:08.726Z,1017.22
2017-11-27T02:11:49.238Z,1017.25
2017-11-27T02:12:29.750Z,1017.23
2017-11-27T02:13:10.268Z,1017.2
2017-11-27T02:13:50.801Z,1017.19
2017-11-27T02:14:31.325Z,1017.19
2017-11-27T02:15:11.846Z,1017.2
2017-11-27T02:15:52.377Z,1017.16
2017-11-27T02:16:32.903Z,1017.2
2017-11-27T02:17:13.425Z,1017.21
2017-11-27T02:17:53.950Z,1017.23
2017-11-27T02:18:34.478Z,1017.2
2017-11-27T02:19:15.005Z,1017.19
2017-11-27T02:19:55.514Z,1017.2
2017-11-27T02:20:36.055Z,1017.2
2017-11-27T02:21:16.565Z,1017.14
2017-11-27T02:21:57.065Z,1017.17
2017-11-27T02:22:37.573Z,1017.15
2017-11-27T02:23:18.100Z,1017.13
2017-11-27T02:23:58.618Z,1017.14
2017-11-27T02:24:39.136Z,1017.19
2017-11-27T02:25:19.669Z,1017.17
2017-11-27T02:26:00.200Z,1017.17
2017-11-27T02:26:40.727Z,1017.19
2017-11-27T02:27:21.222Z,1017.2
2017-11-27T02:28:01.726Z,1017.19
2017-11-27T02:28:42.260Z,1017.24
2017-11-27T02:29:22.786Z,1017.29
2017-11-27T02:30:03.318Z,1017.25
2017-11-27T02:30:43.837Z,1017.23
2017-11-27T02:31:24.355Z,1017.24
2017-11-27T02:32:04.885Z,1017.2
2017-11-27T02:32:45.408Z,1017.17
2017-11-27T02:33:25.906Z,1017.15
2017-11-27T02:34:06.428Z,1017.21
2017-11-27T02:34:46.961Z,1017.17
2017-11-27T02:35:27.473Z,1017.19
2017-11-27T02:36:07.973Z,1017.19
2017-11-27T02:36:48.496Z,1017.18
2017-11-27T02:37:29.023Z,1017.19
2017-11-27T02:38:09.538Z,1017.21
2017-11-27T02:38:50.068Z,1017.16
2017-11-27T02:39:30.591Z,1017.2
2017-11-27T02:40:11.114Z,1017.2
2017-11-27T02:40:51.633Z,1017.18
2017-11-27T02:41:32.140Z,1017.16
2017-11-27T02:42:12.657Z,1017.12
2017-11-27T02:42:53.187Z,1017.12
2017-11-27T02:43:33.712Z,1017.12
2017-11-27T02:44:14.220Z,1017.11
2017-11-27T02:44:54.755Z,1017.08
2017-11-27T02:45:35.275Z,1017.05
2017-11-27T02:46:15.793Z,1017.05
2017-11-27T02:46:56.325Z,1017.06
2017-11-27T02:47:36.874Z,1017.03
2017-11-27T02:48:17.385Z,1017.05
2017-11-27T02:48:57.899Z,1017
2017-11-27T02:49:38.431Z,1016.97
2017-11-27T02:50:18.956Z,1016.99
2017-11-27T02:50:59.497Z,1016.9
2017-11-27T02:51:40.016Z,1016.92
2017-11-27T02:52:20.560Z,1016.9
2017-11-27T02:53:01.060Z,1016.92
2017-11-27T02:53:41.596Z,1016.91
2017-11-27T02:54:22.243Z,1016.91
2017-11-27T02:55:02.760Z,1016.91
2017-11-27T02:55:43.266Z,1016.9
2017-11-27T02:56:23.828Z,1016.93
2017-11-27T02:57:04.343Z,1016.94
2017-11-27T02:57:44.878Z,1016.92
2017-11-27T02:58:25.386Z,1016.91
2017-11-27T02:59:05.904Z,1016.9
2017-11-27T02:59:46.432Z,1016.91
2017-11-27T03:00:26.956Z,1016.92
2017-11-27T03:01:07.467Z,1016.91
2017-11-27T03:01:47.991Z,1016.91
2017-11-27T03:02:28.532Z,1016.92
2017-11-27T03:03:09.040Z,1016.95
2017-11-27T03:03:49.555Z,1016.91
2017-11-27T03:04:30.079Z,1016.91
2017-11-27T03:05:10.627Z,1016.89
2017-11-27T03:05:51.130Z,1016.88
2017-11-27T03:06:31.651Z,1016.92
2017-11-27T03:07:12.187Z,1016.92
2017-11-27T03:07:52.736Z,1016.91
2017-11-27T03:08:33.220Z,1016.89
2017-11-27T03:09:13.724Z,1016.93
2017-11-27T03:09:54.252Z,1016.86
2017-11-27T03:10:34.757Z,1016.89
2017-11-27T03:11:15.282Z,1016.9
2017-11-27T03:11:55.785Z,1016.92
2017-11-27T03:12:36.300Z,1016.91
2017-11-27T03:13:16.820Z,1016.92
2017-11-27T03:13:57.346Z,1016.95
2017-11-27T03:14:37.849Z,1016.92
2017-11-27T03:15:18.378Z,1016.92
2017-11-27T03:15:58.885Z,1016.91
2017-11-27T03:16:39.410Z,1016.88
2017-11-27T03:17:19.956Z,1016.88
2017-11-27T03:18:00.469Z,1016.89
2017-11-27T03:18:41.203Z,1016.88
2017-11-27T03:19:21.715Z,1016.91
2017-11-27T03:20:02.253Z,1016.9
2017-11-27T03:20:42.796Z,1016.89
2017-11-27T03:21:23.330Z,1016.88
2017-11-27T03:22:03.863Z,1016.89
2017-11-27T03:22:44.378Z,1016.83
2017-11-27T03:23:24.906Z,1016.82
2017-11-27T03:24:05.440Z,1016.82
2017-11-27T03:24:45.941Z,1016.83
2017-11-27T03:25:26.477Z,1016.82
2017-11-27T03:26:06.997Z,1016.83
2017-11-27T03:26:47.526Z,1016.8
2017-11-27T03:27:28.035Z,1016.75
2017-11-27T03:28:08.562Z,1016.72
2017-11-27T03:28:49.114Z,1016.77
2017-11-27T03:29:29.637Z,1016.76
2017-11-27T03:30:10.166Z,1016.76
2017-11-27T03:30:50.711Z,1016.79
2017-11-27T03:31:31.209Z,1016.71
2017-11-27T03:32:11.687Z,1016.75
2017-11-27T03:32:52.230Z,1016.74
2017-11-27T03:33:32.734Z,1016.7
2017-11-27T03:34:13.266Z,1016.74
2017-11-27T03:34:53.783Z,1016.7
2017-11-27T03:35:34.319Z,1016.73
2017-11-27T03:36:14.853Z,1016.76
2017-11-27T03:36:55.356Z,1016.75
2017-11-27T03:37:35.875Z,1016.74
2017-11-27T03:38:16.396Z,1016.73
2017-11-27T03:38:56.921Z,1016.73
2017-11-27T03:39:37.413Z,1016.74
2017-11-27T03:40:17.938Z,1016.68
2017-11-27T03:40:58.452Z,1016.7
2017-11-27T03:41:38.968Z,1016.65
2017-11-27T03:42:19.496Z,1016.66
2017-11-27T03:43:00.108Z,1016.66
2017-11-27T03:43:40.621Z,1016.67
2017-11-27T03:44:21.158Z,1016.62
2017-11-27T03:45:01.695Z,1016.59
2017-11-27T03:45:42.209Z,1016.64
2017-11-27T03:46:22.727Z,1016.64
2017-11-27T03:47:03.297Z,1016.61
2017-11-27T03:47:43.832Z,1016.61
2017-11-27T03:48:24.336Z,1016.59
2017-11-27T03:49:04.841Z,1016.63
2017-11-27T03:49:45.372Z,1016.62
2017-11-27T03:50:25.896Z,1016.67
2017-11-27T03:51:06.391Z,1016.62
2017-11-27T03:51:46.919Z,1016.62
2017-11-27T03:52:27.439Z,1016.56
2017-11-27T03:53:07.962Z,1016.6
2017-11-27T03:53:48.489Z,1016.56
2017-11-27T03:54:29.000Z,1016.57
2017-11-27T03:55:09.524Z,1016.56
2017-11-27T03:55:50.047Z,1016.57
2017-11-27T03:56:30.571Z,1016.53
2017-11-27T03:57:11.096Z,1016.56
2017-11-27T03:57:51.617Z,1016.54
2017-11-27T03:58:32.142Z,1016.5
2017-11-27T03:59:12.660Z,1016.51
2017-11-27T03:59:53.176Z,1016.53
2017-11-27T04:00:33.685Z,1016.53
2017-11-27T04:01:14.197Z,1016.51
2017-11-27T04:01:54.692Z,1016.48
2017-11-27T04:02:35.220Z,1016.46
2017-11-27T04:03:15.751Z,1016.44
2017-11-27T04:03:56.275Z,1016.42
2017-11-27T04:04:36.798Z,1016.39
2017-11-27T04:05:17.327Z,1016.43
2017-11-27T04:05:57.855Z,1016.39
2017-11-27T04:06:38.362Z,1016.42
2017-11-27T04:07:18.883Z,1016.36
2017-11-27T04:07:59.394Z,1016.37
2017-11-27T04:08:39.901Z,1016.39
2017-11-27T04:09:20.424Z,1016.36
2017-11-27T04:10:00.961Z,1016.36
2017-11-27T04:10:41.456Z,1016.34
2017-11-27T04:11:21.983Z,1016.34
2017-11-27T04:12:02.509Z,1016.3
2017-11-27T04:12:43.042Z,1016.28
2017-11-27T04:13:23.600Z,1016.32
2017-11-27T04:14:04.120Z,1016.27
2017-11-27T04:14:44.623Z,1016.24
2017-11-27T04:15:25.155Z,1016.25
2017-11-27T04:16:05.650Z,1016.21
2017-11-27T04:16:46.183Z,1016.23
2017-11-27T04:17:26.712Z,1016.22
2017-11-27T04:18:07.227Z,1016.17
2017-11-27T04:18:47.745Z,1016.16
2017-11-27T04:19:28.264Z,1016.14
2017-11-27T04:20:08.786Z,1016.13
2017-11-27T04:20:49.299Z,1016.14
2017-11-27T04:21:29.826Z,1016.09
2017-11-27T04:22:10.345Z,1016.07
2017-11-27T04:22:50.854Z,1016.05
2017-11-27T04:23:31.374Z,1016.08
2017-11-27T04:24:11.884Z,1016.06
2017-11-27T04:24:52.415Z,1016.06
2017-11-27T04:25:32.932Z,1016.04
2017-11-27T04:26:13.445Z,1016.04
2017-11-27T04:26:53.953Z,1016.02
2017-11-27T04:27:34.470Z,1015.99
2017-11-27T04:28:16.949Z,1015.98
2017-11-27T04:28:57.464Z,1015.93
2017-11-27T04:29:38.003Z,1015.94
2017-11-27T04:30:18.503Z,1015.89
2017-11-27T04:30:59.008Z,1015.92
2017-11-27T04:31:39.534Z,1015.89
2017-11-27T04:32:20.053Z,1015.92
2017-11-27T04:33:00.552Z,1015.95
2017-11-27T04:33:41.070Z,1015.88
2017-11-27T04:34:21.612Z,1015.89
2017-11-27T04:35:02.133Z,1015.86
2017-11-27T04:35:42.645Z,1015.85
2017-11-27T04:36:23.172Z,1015.83
2017-11-27T04:37:03.706Z,1015.88
2017-11-27T04:37:44.225Z,1015.88
2017-11-27T04:38:24.755Z,1015.86
2017-11-27T04:39:05.278Z,1015.92
2017-11-27T04:39:45.805Z,1015.87
2017-11-27T04:40:26.327Z,1015.91
2017-11-27T04:41:06.847Z,1015.9
2017-11-27T04:41:47.379Z,1015.88
2017-11-27T04:42:27.933Z,1015.85
2017-11-27T04:43:08.464Z,1015.84
2017-11-27T04:43:48.985Z,1015.86
2017-11-27T04:44:29.564Z,1015.87
2017-11-27T04:45:10.028Z,1015.86
2017-11-27T04:45:50.538Z,1015.93
2017-11-27T04:46:31.054Z,1015.89
2017-11-27T04:47:11.580Z,1015.86
2017-11-27T04:47:52.107Z,1015.88
2017-11-27T04:48:32.638Z,1015.91
2017-11-27T04:49:13.150Z,1015.91
2017-11-27T04:49:53.652Z,1015.89
2017-11-27T04:50:34.205Z,1015.87
2017-11-27T04:51:14.736Z,1015.9
2017-11-27T04:51:55.241Z,1015.88
2017-11-27T04:52:35.782Z,1015.91
2017-11-27T04:53:16.322Z,1015.89
2017-11-27T04:53:56.863Z,1015.92
2017-11-27T04:54:37.373Z,1015.92
2017-11-27T04:55:17.904Z,1015.93
2017-11-27T04:55:58.418Z,1015.84
2017-11-27T04:56:38.963Z,1015.82
2017-11-27T04:57:19.475Z,1015.86
2017-11-27T04:57:59.990Z,1015.86
2017-11-27T04:58:40.519Z,1015.89
2017-11-27T04:59:21.230Z,1015.89
2017-11-27T05:00:01.754Z,1015.84
2017-11-27T05:00:42.273Z,1015.85
2017-11-27T05:01:22.790Z,1015.83
2017-11-27T05:02:03.330Z,1015.77
2017-11-27T05:02:43.871Z,1015.77
2017-11-27T05:03:24.405Z,1015.79
2017-11-27T05:04:04.928Z,1015.81
2017-11-27T05:04:45.503Z,1015.8
2017-11-27T05:05:26.024Z,1015.78
2017-11-27T05:06:06.541Z,1015.83
2017-11-27T05:06:47.108Z,1015.83
2017-11-27T05:07:27.579Z,1015.82
2017-11-27T05:08:08.091Z,1015.8
2017-11-27T05:08:48.604Z,1015.8
2017-11-27T05:09:29.127Z,1015.76
2017-11-27T05:10:09.636Z,1015.77
2017-11-27T05:10:50.167Z,1015.77
2017-11-27T05:11:30.694Z,1015.78
2017-11-27T05:12:11.229Z,1015.75
2017-11-27T05:12:51.733Z,1015.76
2017-11-27T05:13:32.260Z,1015.71
2017-11-27T05:14:12.787Z,1015.73
2017-11-27T05:14:53.307Z,1015.68
2017-11-27T05:15:33.819Z,1015.72
2017-11-27T05:16:14.346Z,1015.73
2017-11-27T05:16:54.866Z,1015.76
2017-11-27T05:17:35.395Z,1015.81
2017-11-27T05:18:15.921Z,1015.75
2017-11-27T05:18:56.442Z,1015.71
2017-11-27T05:19:36.959Z,1015.77
2017-11-27T05:20:17.491Z,1015.69
2017-11-27T05:20:58.000Z,1015.68
2017-11-27T05:21:38.531Z,1015.65
2017-11-27T05:22:19.040Z,1015.57
2017-11-27T05:22:59.557Z,1015.57
2017-11-27T05:23:40.091Z,1015.56
2017-11-27T05:24:20.570Z,1015.5
2017-11-27T05:25:01.103Z,1015.48
2017-11-27T05:25:41.683Z,1015.53
2017-11-27T05:26:22.300Z,1015.48
2017-11-27T05:27:02.858Z,1015.46
2017-11-27T05:27:43.383Z,1015.5
2017-11-27T05:28:23.878Z,1015.43
2017-11-27T05:29:04.392Z,1015.48
2017-11-27T05:29:44.941Z,1015.44
2017-11-27T05:30:25.415Z,1015.49
2017-11-27T05:31:05.935Z,1015.48
2017-11-27T05:31:46.451Z,1015.46
2017-11-27T05:32:26.976Z,1015.42
2017-11-27T05:33:07.506Z,1015.42
2017-11-27T05:33:48.025Z,1015.39
2017-11-27T05:34:28.550Z,1015.42
2017-11-27T05:35:09.063Z,1015.45
2017-11-27T05:35:49.594Z,1015.42
2017-11-27T05:36:30.127Z,1015.4
2017-11-27T05:37:10.656Z,1015.36
2017-11-27T05:37:51.201Z,1015.34
2017-11-27T05:38:31.703Z,1015.3
2017-11-27T05:39:12.238Z,1015.31
2017-11-27T05:39:52.756Z,1015.31
2017-11-27T05:40:33.281Z,1015.32
2017-11-27T05:41:13.802Z,1015.34
2017-11-27T05:41:54.366Z,1015.31
2017-11-27T05:42:34.889Z,1015.34
2017-11-27T05:43:15.391Z,1015.32
2017-11-27T05:43:55.901Z,1015.37
2017-11-27T05:44:36.440Z,1015.29
2017-11-27T05:45:16.956Z,1015.28
2017-11-27T05:45:57.481Z,1015.24
2017-11-27T05:46:38.009Z,1015.27
2017-11-27T05:47:18.545Z,1015.27
2017-11-27T05:47:59.068Z,1015.26
2017-11-27T05:48:39.594Z,1015.26
2017-11-27T05:49:20.124Z,1015.29
2017-11-27T05:50:00.664Z,1015.26
2017-11-27T05:50:41.226Z,1015.26
2017-11-27T05:51:21.744Z,1015.22
2017-11-27T05:52:02.248Z,1015.22
2017-11-27T05:52:42.773Z,1015.22
2017-11-27T05:53:23.301Z,1015.25
2017-11-27T05:54:03.826Z,1015.21
2017-11-27T05:54:44.370Z,1015.2
2017-11-27T05:55:24.870Z,1015.21
2017-11-27T05:56:05.405Z,1015.18
2017-11-27T05:56:45.911Z,1015.18
2017-11-27T05:57:26.437Z,1015.2
2017-11-27T05:58:06.977Z,1015.23
2017-11-27T05:58:47.513Z,1015.17
2017-11-27T05:59:28.028Z,1015.16
2017-11-27T06:00:08.552Z,1015.19
2017-11-27T06:00:49.081Z,1015.16
2017-11-27T06:01:29.617Z,1015.15
2017-11-27T06:02:10.145Z,1015.13
2017-11-27T06:02:50.680Z,1015.14
2017-11-27T06:03:31.204Z,1015.12
2017-11-27T06:04:11.741Z,1015.14
2017-11-27T06:04:52.269Z,1015.13
2017-11-27T06:05:32.805Z,1015.19
2017-11-27T06:06:13.329Z,1015.15
2017-11-27T06:06:53.846Z,1015.11
2017-11-27T06:07:34.346Z,1015.15
2017-11-27T06:08:14.859Z,1015.19
2017-11-27T06:08:55.374Z,1015.12
2017-11-27T06:09:35.904Z,1015.11
2017-11-27T06:10:16.436Z,1015.17
2017-11-27T06:10:56.967Z,1015.1
2017-11-27T06:11:37.508Z,1015.13
2017-11-27T06:12:18.005Z,1015.11
2017-11-27T06:12:58.501Z,1015.07
2017-11-27T06:13:39.028Z,1015.1
2017-11-27T06:14:19.547Z,1015.1
2017-11-27T06:15:00.160Z,1015.07
2017-11-27T06:15:40.681Z,1015.1
2017-11-27T06:16:21.205Z,1015.07
2017-11-27T06:17:01.735Z,1015.01
2017-11-27T06:17:42.247Z,1015.05
2017-11-27T06:18:22.788Z,1015.03
2017-11-27T06:19:03.321Z,1014.98
2017-11-27T06:19:43.853Z,1014.98
2017-11-27T06:20:24.384Z,1014.97
2017-11-27T06:21:04.870Z,1014.92
2017-11-27T06:21:45.390Z,1014.92
2017-11-27T06:22:25.898Z,1014.89
2017-11-27T06:23:06.422Z,1014.91
2017-11-27T06:23:46.929Z,1014.93
2017-11-27T06:24:27.431Z,1014.88
2017-11-27T06:25:07.959Z,1014.89
2017-11-27T06:25:48.482Z,1014.87
2017-11-27T06:26:29.021Z,1014.84
2017-11-27T06:27:09.537Z,1014.84
2017-11-27T06:27:50.057Z,1014.84
2017-11-27T06:28:30.583Z,1014.86
2017-11-27T06:29:11.101Z,1014.9
2017-11-27T06:29:51.621Z,1014.82
2017-11-27T06:30:32.162Z,1014.78
2017-11-27T06:31:12.673Z,1014.79
2017-11-27T06:31:53.201Z,1014.8
2017-11-27T06:32:33.711Z,1014.79
2017-11-27T06:33:14.213Z,1014.77
2017-11-27T06:33:54.752Z,1014.76
2017-11-27T06:34:35.264Z,1014.79
2017-11-27T06:35:15.802Z,1014.75
2017-11-27T06:35:56.500Z,1014.75
2017-11-27T06:36:37.013Z,1014.71
2017-11-27T06:37:17.530Z,1014.74
2017-11-27T06:37:58.062Z,1014.75
2017-11-27T06:38:38.597Z,1014.67
2017-11-27T06:39:19.135Z,1014.69
2017-11-27T06:39:59.634Z,1014.67
2017-11-27T06:40:40.165Z,1014.72
2017-11-27T06:41:20.700Z,1014.59
2017-11-27T06:42:01.212Z,1014.58
2017-11-27T06:42:41.734Z,1014.57
2017-11-27T06:43:22.232Z,1014.63
2017-11-27T06:44:02.759Z,1014.56
2017-11-27T06:44:43.280Z,1014.62
2017-11-27T06:45:23.788Z,1014.57
2017-11-27T06:46:04.314Z,1014.53
2017-11-27T06:46:44.843Z,1014.51
2017-11-27T06:47:25.364Z,1014.55
2017-11-27T06:48:05.960Z,1014.54
2017-11-27T06:48:46.504Z,1014.52
2017-11-27T06:49:26.985Z,1014.48
2017-11-27T06:50:07.518Z,1014.51
2017-11-27T06:50:48.015Z,1014.51
2017-11-27T06:51:28.528Z,1014.5
2017-11-27T06:52:09.058Z,1014.52
2017-11-27T06:52:49.561Z,1014.46
2017-11-27T06:53:30.113Z,1014.5
2017-11-27T06:54:10.628Z,1014.45
2017-11-27T06:54:51.159Z,1014.45
2017-11-27T06:55:31.671Z,1014.5
2017-11-27T06:56:12.191Z,1014.44
2017-11-27T06:56:52.728Z,1014.37
2017-11-27T06:57:33.245Z,1014.31
2017-11-27T06:58:13.765Z,1014.4
2017-11-27T06:58:54.292Z,1014.38
2017-11-27T06:59:34.828Z,1014.34
2017-11-27T07:00:15.337Z,1014.31
2017-11-27T07:00:55.903Z,1014.35
2017-11-27T07:01:36.430Z,1014.28
2017-11-27T07:02:16.959Z,1014.27
2017-11-27T07:02:57.533Z,1014.23
2017-11-27T07:03:38.088Z,1014.23
2017-11-27T07:04:18.672Z,1014.28
2017-11-27T07:04:59.199Z,1014.23
2017-11-27T07:05:39.742Z,1014.21
2017-11-27T07:06:20.260Z,1014.21
2017-11-27T07:07:00.779Z,1014.24
2017-11-27T07:07:41.278Z,1014.27
2017-11-27T07:08:21.789Z,1014.25
2017-11-27T07:09:02.333Z,1014.16
2017-11-27T07:09:42.864Z,1014.19
2017-11-27T07:10:23.376Z,1014.2
2017-11-27T07:11:03.889Z,1014.17
2017-11-27T07:11:44.409Z,1014.16
2017-11-27T07:12:24.941Z,1014.21
2017-11-27T07:13:05.465Z,1014.16
2017-11-27T07:13:46.014Z,1014.13
2017-11-27T07:14:26.513Z,1014.16
2017-11-27T07:15:07.037Z,1014.13
2017-11-27T07:15:47.553Z,1014.13
2017-11-27T07:16:28.060Z,1014.09
2017-11-27T07:17:08.580Z,1014.09
2017-11-27T07:17:49.094Z,1014.05
2017-11-27T07:18:29.627Z,1014.08
2017-11-27T07:19:10.138Z,1014.09
2017-11-27T07:19:50.659Z,1014.07
2017-11-27T07:20:31.180Z,1014.12
2017-11-27T07:21:11.697Z,1014.07
2017-11-27T07:21:52.201Z,1014.03
2017-11-27T07:22:32.745Z,1014.09
2017-11-27T07:23:13.277Z,1014.03
2017-11-27T07:23:53.776Z,1014.07
2017-11-27T07:24:34.295Z,1014.06
2017-11-27T07:25:14.831Z,1014.04
2017-11-27T07:25:55.370Z,1014.05
2017-11-27T07:26:35.894Z,1014.01
2017-11-27T07:27:16.413Z,1013.98
2017-11-27T07:27:56.941Z,1013.96
2017-11-27T07:28:37.466Z,1013.92
2017-11-27T07:29:19.961Z,1013.96
2017-11-27T07:30:00.485Z,1013.96
2017-11-27T07:30:41.006Z,1013.87
2017-11-27T07:31:21.542Z,1013.87
2017-11-27T07:32:02.075Z,1013.88
2017-11-27T07:32:42.599Z,1013.92
2017-11-27T07:33:23.120Z,1013.8
2017-11-27T07:34:03.642Z,1013.84
2017-11-27T07:34:44.154Z,1013.83
2017-11-27T07:35:24.674Z,1013.79
2017-11-27T07:36:05.204Z,1013.79
2017-11-27T07:36:45.738Z,1013.7
2017-11-27T07:37:26.324Z,1013.73
2017-11-27T07:38:06.869Z,1013.72
2017-11-27T07:38:47.387Z,1013.7
2017-11-27T07:39:27.892Z,1013.87
2017-11-27T07:40:08.408Z,1013.75
2017-11-27T07:40:48.909Z,1013.71
2017-11-27T07:41:29.439Z,1013.71
2017-11-27T07:42:09.963Z,1013.74
2017-11-27T07:42:50.481Z,1013.77
2017-11-27T07:43:31.001Z,1013.74
2017-11-27T07:44:11.529Z,1013.77
2017-11-27T07:44:52.059Z,1013.78
2017-11-27T07:45:32.590Z,1013.71
2017-11-27T07:46:13.112Z,1013.77
2017-11-27T07:46:53.637Z,1013.68
2017-11-27T07:47:34.165Z,1013.72
2017-11-27T07:48:14.703Z,1013.68
2017-11-27T07:48:55.232Z,1013.64
2017-11-27T07:49:35.750Z,1013.64
2017-11-27T07:50:16.277Z,1013.66
2017-11-27T07:50:56.793Z,1013.63
2017-11-27T07:51:37.308Z,1013.62
2017-11-27T07:52:17.836Z,1013.59
2017-11-27T07:52:58.373Z,1013.6
2017-11-27T07:53:38.905Z,1013.59
2017-11-27T07:54:19.437Z,1013.55
2017-11-27T07:54:59.957Z,1013.57
2017-11-27T07:55:40.478Z,1013.55
2017-11-27T07:56:20.996Z,1013.47
2017-11-27T07:57:01.522Z,1013.49
2017-11-27T07:57:42.034Z,1013.47
2017-11-27T07:58:22.569Z,1013.49
2017-11-27T07:59:03.107Z,1013.43
2017-11-27T07:59:43.638Z,1013.42
2017-11-27T08:00:24.160Z,1013.37
2017-11-27T08:01:04.673Z,1013.39
2017-11-27T08:01:45.192Z,1013.46
2017-11-27T08:02:25.716Z,1013.41
2017-11-27T08:03:06.224Z,1013.4
2017-11-27T08:03:46.737Z,1013.41
2017-11-27T08:04:27.271Z,1013.38
2017-11-27T08:05:07.781Z,1013.33
2017-11-27T08:05:48.321Z,1013.33
2017-11-27T08:06:28.838Z,1013.3
2017-11-27T08:07:09.375Z,1013.32
2017-11-27T08:07:49.883Z,1013.26
2017-11-27T08:08:30.411Z,1013.31
2017-11-27T08:09:10.900Z,1013.27
2017-11-27T08:09:51.434Z,1013.3
2017-11-27T08:10:31.965Z,1013.18
2017-11-27T08:11:12.490Z,1013.24